sensor_id;sensor_type;location;lat;lon;timestamp;P1;durP1;ratioP1;P2;durP2;ratioP2
63110;SDS011;49201;53.426;10.300;2023-04-16T00:00:20;37.83;;;24.10;;
63110;SDS011;49201;53.426;10.300;2023-04-16T00:02:46;39.47;;;25.70;;
63110;SDS011;49201;53.426;10.300;2023-04-16T00:05:12;36.43;;;26.27;;
63110;SDS011;49201;53.426;10.300;2023-04-16T00:07:38;35.37;;;24.23;;
63110;SDS011;49201;53.426;10.300;2023-04-16T00:10:04;38.00;;;26.70;;
63110;SDS011;49201;53.426;10.300;2023-04-16T00:12:30;39.90;;;25.00;;
63110;SDS011;49201;53.426;10.300;2023-04-16T00:14:55;33.10;;;24.03;;
63110;SDS011;49201;53.426;10.300;2023-04-16T00:17:21;34.90;;;23.43;;
63110;SDS011;49201;53.426;10.300;2023-04-16T00:19:46;39.30;;;24.83;;
63110;SDS011;49201;53.426;10.300;2023-04-16T00:22:11;35.83;;;22.07;;
63110;SDS011;49201;53.426;10.300;2023-04-16T00:24:37;36.83;;;24.63;;
63110;SDS011;49201;53.426;10.300;2023-04-16T00:27:02;31.97;;;22.70;;
63110;SDS011;49201;53.426;10.300;2023-04-16T00:29:28;32.50;;;22.80;;
63110;SDS011;49201;53.426;10.300;2023-04-16T00:31:55;33.73;;;22.20;;
63110;SDS011;49201;53.426;10.300;2023-04-16T00:34:22;36.70;;;23.50;;
63110;SDS011;49201;53.426;10.300;2023-04-16T00:36:47;34.63;;;21.83;;
63110;SDS011;49201;53.426;10.300;2023-04-16T00:39:13;33.30;;;21.93;;
63110;SDS011;49201;53.426;10.300;2023-04-16T00:41:38;34.40;;;22.67;;
63110;SDS011;49201;53.426;10.300;2023-04-16T00:44:04;31.93;;;22.27;;
63110;SDS011;49201;53.426;10.300;2023-04-16T00:46:29;34.77;;;22.57;;
63110;SDS011;49201;53.426;10.300;2023-04-16T00:48:55;29.10;;;20.87;;
63110;SDS011;49201;53.426;10.300;2023-04-16T00:51:21;31.90;;;22.03;;
63110;SDS011;49201;53.426;10.300;2023-04-16T00:53:47;30.43;;;20.90;;
63110;SDS011;49201;53.426;10.300;2023-04-16T00:56:13;30.47;;;21.00;;
63110;SDS011;49201;53.426;10.300;2023-04-16T00:58:39;28.77;;;21.10;;
63110;SDS011;49201;53.426;10.300;2023-04-16T01:01:04;32.67;;;20.57;;
63110;SDS011;49201;53.426;10.300;2023-04-16T01:03:33;29.03;;;19.50;;
63110;SDS011;49201;53.426;10.300;2023-04-16T01:06:03;30.20;;;19.80;;
63110;SDS011;49201;53.426;10.300;2023-04-16T01:08:30;29.20;;;19.73;;
63110;SDS011;49201;53.426;10.300;2023-04-16T01:10:55;26.57;;;18.87;;
63110;SDS011;49201;53.426;10.300;2023-04-16T01:13:21;29.77;;;19.10;;
63110;SDS011;49201;53.426;10.300;2023-04-16T01:15:46;28.50;;;19.70;;
63110;SDS011;49201;53.426;10.300;2023-04-16T01:18:15;29.73;;;19.97;;
63110;SDS011;49201;53.426;10.300;2023-04-16T01:20:42;29.80;;;19.57;;
63110;SDS011;49201;53.426;10.300;2023-04-16T01:23:08;27.00;;;19.73;;
63110;SDS011;49201;53.426;10.300;2023-04-16T01:25:33;29.40;;;19.23;;
63110;SDS011;49201;53.426;10.300;2023-04-16T01:27:59;32.27;;;19.77;;
63110;SDS011;49201;53.426;10.300;2023-04-16T01:30:25;30.53;;;19.67;;
63110;SDS011;49201;53.426;10.300;2023-04-16T01:33:03;28.47;;;18.87;;
63110;SDS011;49201;53.426;10.300;2023-04-16T01:35:30;31.03;;;19.40;;
63110;SDS011;49201;53.426;10.300;2023-04-16T01:37:55;26.77;;;18.17;;
63110;SDS011;49201;53.426;10.300;2023-04-16T01:40:21;28.40;;;18.13;;
63110;SDS011;49201;53.426;10.300;2023-04-16T01:42:46;28.50;;;19.33;;
63110;SDS011;49201;53.426;10.300;2023-04-16T01:45:12;29.40;;;19.97;;
63110;SDS011;49201;53.426;10.300;2023-04-16T01:47:37;28.37;;;18.63;;
63110;SDS011;49201;53.426;10.300;2023-04-16T01:50:03;27.23;;;18.53;;
63110;SDS011;49201;53.426;10.300;2023-04-16T01:52:29;25.77;;;18.60;;
63110;SDS011;49201;53.426;10.300;2023-04-16T01:54:55;26.63;;;18.27;;
63110;SDS011;49201;53.426;10.300;2023-04-16T01:57:20;30.57;;;19.13;;
63110;SDS011;49201;53.426;10.300;2023-04-16T01:59:46;27.83;;;19.17;;
63110;SDS011;49201;53.426;10.300;2023-04-16T02:02:12;25.80;;;19.53;;
63110;SDS011;49201;53.426;10.300;2023-04-16T02:04:41;28.70;;;18.60;;
63110;SDS011;49201;53.426;10.300;2023-04-16T02:07:09;31.37;;;19.10;;
63110;SDS011;49201;53.426;10.300;2023-04-16T02:09:36;26.37;;;19.07;;
63110;SDS011;49201;53.426;10.300;2023-04-16T02:12:04;27.50;;;19.10;;
63110;SDS011;49201;53.426;10.300;2023-04-16T02:14:31;26.57;;;16.97;;
63110;SDS011;49201;53.426;10.300;2023-04-16T02:16:57;30.47;;;18.00;;
63110;SDS011;49201;53.426;10.300;2023-04-16T02:19:36;23.57;;;17.33;;
63110;SDS011;49201;53.426;10.300;2023-04-16T02:22:02;27.17;;;17.40;;
63110;SDS011;49201;53.426;10.300;2023-04-16T02:24:28;25.57;;;17.80;;
63110;SDS011;49201;53.426;10.300;2023-04-16T02:26:55;25.53;;;17.17;;
63110;SDS011;49201;53.426;10.300;2023-04-16T02:29:21;25.63;;;16.80;;
63110;SDS011;49201;53.426;10.300;2023-04-16T02:31:53;28.00;;;18.20;;
63110;SDS011;49201;53.426;10.300;2023-04-16T02:34:19;26.50;;;17.47;;
63110;SDS011;49201;53.426;10.300;2023-04-16T02:36:45;30.30;;;18.90;;
63110;SDS011;49201;53.426;10.300;2023-04-16T02:39:10;23.87;;;17.17;;
63110;SDS011;49201;53.426;10.300;2023-04-16T02:41:35;24.97;;;17.43;;
63110;SDS011;49201;53.426;10.300;2023-04-16T02:44:02;27.27;;;17.87;;
63110;SDS011;49201;53.426;10.300;2023-04-16T02:46:28;22.93;;;16.87;;
63110;SDS011;49201;53.426;10.300;2023-04-16T02:48:53;23.47;;;16.13;;
63110;SDS011;49201;53.426;10.300;2023-04-16T02:51:19;23.93;;;16.57;;
63110;SDS011;49201;53.426;10.300;2023-04-16T02:53:44;23.80;;;16.17;;
63110;SDS011;49201;53.426;10.300;2023-04-16T02:56:11;22.97;;;15.33;;
63110;SDS011;49201;53.426;10.300;2023-04-16T02:58:37;26.50;;;16.53;;
63110;SDS011;49201;53.426;10.300;2023-04-16T03:01:02;23.17;;;17.10;;
63110;SDS011;49201;53.426;10.300;2023-04-16T03:03:28;24.53;;;16.37;;
63110;SDS011;49201;53.426;10.300;2023-04-16T03:05:54;27.80;;;18.07;;
63110;SDS011;49201;53.426;10.300;2023-04-16T03:08:19;23.70;;;16.90;;
63110;SDS011;49201;53.426;10.300;2023-04-16T03:10:45;24.07;;;16.70;;
63110;SDS011;49201;53.426;10.300;2023-04-16T03:13:10;26.17;;;17.00;;
63110;SDS011;49201;53.426;10.300;2023-04-16T03:15:36;23.20;;;15.70;;
63110;SDS011;49201;53.426;10.300;2023-04-16T03:18:01;23.73;;;16.67;;
63110;SDS011;49201;53.426;10.300;2023-04-16T03:20:27;25.33;;;15.87;;
63110;SDS011;49201;53.426;10.300;2023-04-16T03:22:52;24.20;;;16.27;;
63110;SDS011;49201;53.426;10.300;2023-04-16T03:25:18;23.33;;;16.47;;
63110;SDS011;49201;53.426;10.300;2023-04-16T03:27:44;22.87;;;16.13;;
63110;SDS011;49201;53.426;10.300;2023-04-16T03:30:10;22.20;;;15.50;;
63110;SDS011;49201;53.426;10.300;2023-04-16T03:32:37;25.77;;;16.17;;
63110;SDS011;49201;53.426;10.300;2023-04-16T03:35:04;23.40;;;17.00;;
63110;SDS011;49201;53.426;10.300;2023-04-16T03:37:30;23.33;;;17.33;;
63110;SDS011;49201;53.426;10.300;2023-04-16T03:39:56;25.43;;;16.70;;
63110;SDS011;49201;53.426;10.300;2023-04-16T03:42:21;25.93;;;17.20;;
63110;SDS011;49201;53.426;10.300;2023-04-16T03:44:47;27.93;;;17.67;;
63110;SDS011;49201;53.426;10.300;2023-04-16T03:47:14;25.13;;;16.50;;
63110;SDS011;49201;53.426;10.300;2023-04-16T03:49:39;25.00;;;17.53;;
63110;SDS011;49201;53.426;10.300;2023-04-16T03:52:05;24.17;;;16.73;;
63110;SDS011;49201;53.426;10.300;2023-04-16T03:54:30;24.00;;;17.20;;
63110;SDS011;49201;53.426;10.300;2023-04-16T03:57:07;26.57;;;17.37;;
63110;SDS011;49201;53.426;10.300;2023-04-16T03:59:32;29.40;;;17.60;;
63110;SDS011;49201;53.426;10.300;2023-04-16T04:01:58;27.97;;;17.17;;
63110;SDS011;49201;53.426;10.300;2023-04-16T04:04:24;25.87;;;17.07;;
63110;SDS011;49201;53.426;10.300;2023-04-16T04:06:50;25.10;;;17.77;;
63110;SDS011;49201;53.426;10.300;2023-04-16T04:09:16;26.57;;;16.60;;
63110;SDS011;49201;53.426;10.300;2023-04-16T04:11:41;24.03;;;16.47;;
63110;SDS011;49201;53.426;10.300;2023-04-16T04:14:07;24.77;;;17.10;;
63110;SDS011;49201;53.426;10.300;2023-04-16T04:16:33;22.53;;;17.07;;
63110;SDS011;49201;53.426;10.300;2023-04-16T04:18:58;24.97;;;16.37;;
63110;SDS011;49201;53.426;10.300;2023-04-16T04:21:25;26.17;;;16.53;;
63110;SDS011;49201;53.426;10.300;2023-04-16T04:23:52;24.17;;;17.27;;
63110;SDS011;49201;53.426;10.300;2023-04-16T04:26:18;25.20;;;16.50;;
63110;SDS011;49201;53.426;10.300;2023-04-16T04:28:43;27.27;;;16.80;;
63110;SDS011;49201;53.426;10.300;2023-04-16T04:31:09;23.93;;;16.03;;
63110;SDS011;49201;53.426;10.300;2023-04-16T04:33:35;20.60;;;15.63;;
63110;SDS011;49201;53.426;10.300;2023-04-16T04:36:01;24.40;;;16.03;;
63110;SDS011;49201;53.426;10.300;2023-04-16T04:38:26;24.67;;;16.87;;
63110;SDS011;49201;53.426;10.300;2023-04-16T04:40:52;22.20;;;16.80;;
63110;SDS011;49201;53.426;10.300;2023-04-16T04:43:19;25.30;;;16.63;;
63110;SDS011;49201;53.426;10.300;2023-04-16T04:45:45;26.93;;;16.90;;
63110;SDS011;49201;53.426;10.300;2023-04-16T04:48:11;23.97;;;16.10;;
63110;SDS011;49201;53.426;10.300;2023-04-16T04:50:37;23.00;;;16.33;;
63110;SDS011;49201;53.426;10.300;2023-04-16T04:53:03;21.63;;;16.23;;
63110;SDS011;49201;53.426;10.300;2023-04-16T04:55:37;22.63;;;16.50;;
63110;SDS011;49201;53.426;10.300;2023-04-16T04:58:04;25.43;;;17.03;;
63110;SDS011;49201;53.426;10.300;2023-04-16T05:00:31;23.10;;;17.20;;
63110;SDS011;49201;53.426;10.300;2023-04-16T05:03:00;25.60;;;17.17;;
63110;SDS011;49201;53.426;10.300;2023-04-16T05:05:26;25.93;;;17.43;;
63110;SDS011;49201;53.426;10.300;2023-04-16T05:07:52;25.93;;;17.33;;
63110;SDS011;49201;53.426;10.300;2023-04-16T05:10:17;25.30;;;16.97;;
63110;SDS011;49201;53.426;10.300;2023-04-16T05:12:43;26.03;;;16.97;;
63110;SDS011;49201;53.426;10.300;2023-04-16T05:15:08;25.63;;;17.23;;
63110;SDS011;49201;53.426;10.300;2023-04-16T05:17:34;23.33;;;17.63;;
63110;SDS011;49201;53.426;10.300;2023-04-16T05:19:59;22.07;;;16.17;;
63110;SDS011;49201;53.426;10.300;2023-04-16T05:22:25;24.10;;;16.97;;
63110;SDS011;49201;53.426;10.300;2023-04-16T05:24:50;22.67;;;17.43;;
63110;SDS011;49201;53.426;10.300;2023-04-16T05:27:16;22.03;;;16.50;;
63110;SDS011;49201;53.426;10.300;2023-04-16T05:29:41;27.03;;;17.33;;
63110;SDS011;49201;53.426;10.300;2023-04-16T05:32:06;22.27;;;15.37;;
63110;SDS011;49201;53.426;10.300;2023-04-16T05:34:32;23.97;;;16.30;;
63110;SDS011;49201;53.426;10.300;2023-04-16T05:36:57;26.07;;;17.33;;
63110;SDS011;49201;53.426;10.300;2023-04-16T05:39:23;23.50;;;16.30;;
63110;SDS011;49201;53.426;10.300;2023-04-16T05:41:48;26.53;;;17.03;;
63110;SDS011;49201;53.426;10.300;2023-04-16T05:44:14;26.07;;;16.83;;
63110;SDS011;49201;53.426;10.300;2023-04-16T05:46:39;29.17;;;16.90;;
63110;SDS011;49201;53.426;10.300;2023-04-16T05:49:05;23.53;;;16.70;;
63110;SDS011;49201;53.426;10.300;2023-04-16T05:51:30;23.73;;;16.77;;
63110;SDS011;49201;53.426;10.300;2023-04-16T05:53:56;22.57;;;16.83;;
63110;SDS011;49201;53.426;10.300;2023-04-16T05:56:21;24.33;;;16.80;;
63110;SDS011;49201;53.426;10.300;2023-04-16T05:58:47;26.17;;;17.20;;
63110;SDS011;49201;53.426;10.300;2023-04-16T06:01:12;22.43;;;16.43;;
63110;SDS011;49201;53.426;10.300;2023-04-16T06:03:38;25.07;;;17.43;;
63110;SDS011;49201;53.426;10.300;2023-04-16T06:06:03;27.27;;;17.50;;
63110;SDS011;49201;53.426;10.300;2023-04-16T06:08:29;27.10;;;17.17;;
63110;SDS011;49201;53.426;10.300;2023-04-16T06:10:54;23.93;;;17.43;;
63110;SDS011;49201;53.426;10.300;2023-04-16T06:13:20;25.97;;;17.33;;
63110;SDS011;49201;53.426;10.300;2023-04-16T06:15:46;21.50;;;16.40;;
63110;SDS011;49201;53.426;10.300;2023-04-16T06:18:11;25.03;;;18.23;;
63110;SDS011;49201;53.426;10.300;2023-04-16T06:20:37;25.27;;;17.37;;
63110;SDS011;49201;53.426;10.300;2023-04-16T06:23:02;25.17;;;16.80;;
63110;SDS011;49201;53.426;10.300;2023-04-16T06:25:28;25.97;;;18.00;;
63110;SDS011;49201;53.426;10.300;2023-04-16T06:27:53;23.83;;;16.53;;
63110;SDS011;49201;53.426;10.300;2023-04-16T06:30:19;25.30;;;17.93;;
63110;SDS011;49201;53.426;10.300;2023-04-16T06:32:44;28.90;;;17.80;;
63110;SDS011;49201;53.426;10.300;2023-04-16T06:35:10;28.23;;;16.97;;
63110;SDS011;49201;53.426;10.300;2023-04-16T06:37:36;23.83;;;18.17;;
63110;SDS011;49201;53.426;10.300;2023-04-16T06:40:02;27.50;;;16.67;;
63110;SDS011;49201;53.426;10.300;2023-04-16T06:42:28;26.23;;;18.33;;
63110;SDS011;49201;53.426;10.300;2023-04-16T06:44:54;22.70;;;17.53;;
63110;SDS011;49201;53.426;10.300;2023-04-16T06:47:19;26.90;;;17.90;;
63110;SDS011;49201;53.426;10.300;2023-04-16T06:49:45;26.17;;;17.37;;
63110;SDS011;49201;53.426;10.300;2023-04-16T06:52:11;24.53;;;17.40;;
63110;SDS011;49201;53.426;10.300;2023-04-16T06:54:36;24.97;;;17.53;;
63110;SDS011;49201;53.426;10.300;2023-04-16T06:57:02;23.03;;;17.53;;
63110;SDS011;49201;53.426;10.300;2023-04-16T06:59:27;23.93;;;17.07;;
63110;SDS011;49201;53.426;10.300;2023-04-16T07:01:53;23.90;;;16.83;;
63110;SDS011;49201;53.426;10.300;2023-04-16T07:04:19;23.37;;;16.57;;
63110;SDS011;49201;53.426;10.300;2023-04-16T07:06:44;22.90;;;17.07;;
63110;SDS011;49201;53.426;10.300;2023-04-16T07:09:10;23.80;;;16.70;;
63110;SDS011;49201;53.426;10.300;2023-04-16T07:11:35;23.97;;;16.10;;
63110;SDS011;49201;53.426;10.300;2023-04-16T07:14:01;26.27;;;17.23;;
63110;SDS011;49201;53.426;10.300;2023-04-16T07:16:26;22.13;;;16.40;;
63110;SDS011;49201;53.426;10.300;2023-04-16T07:18:52;24.10;;;17.87;;
63110;SDS011;49201;53.426;10.300;2023-04-16T07:21:17;22.03;;;16.60;;
63110;SDS011;49201;53.426;10.300;2023-04-16T07:23:43;25.70;;;17.17;;
63110;SDS011;49201;53.426;10.300;2023-04-16T07:26:08;24.53;;;17.03;;
63110;SDS011;49201;53.426;10.300;2023-04-16T07:28:34;23.47;;;16.37;;
63110;SDS011;49201;53.426;10.300;2023-04-16T07:31:00;23.87;;;17.67;;
63110;SDS011;49201;53.426;10.300;2023-04-16T07:33:25;24.00;;;16.60;;
63110;SDS011;49201;53.426;10.300;2023-04-16T07:35:51;24.60;;;16.57;;
63110;SDS011;49201;53.426;10.300;2023-04-16T07:38:16;20.40;;;17.23;;
63110;SDS011;49201;53.426;10.300;2023-04-16T07:40:42;26.03;;;18.23;;
63110;SDS011;49201;53.426;10.300;2023-04-16T07:43:07;24.10;;;18.27;;
63110;SDS011;49201;53.426;10.300;2023-04-16T07:45:33;24.37;;;17.73;;
63110;SDS011;49201;53.426;10.300;2023-04-16T07:47:59;26.40;;;18.17;;
63110;SDS011;49201;53.426;10.300;2023-04-16T07:50:25;24.63;;;17.97;;
63110;SDS011;49201;53.426;10.300;2023-04-16T07:52:50;28.73;;;18.40;;
63110;SDS011;49201;53.426;10.300;2023-04-16T07:55:16;26.13;;;20.23;;
63110;SDS011;49201;53.426;10.300;2023-04-16T07:57:41;35.17;;;24.90;;
63110;SDS011;49201;53.426;10.300;2023-04-16T08:00:07;37.90;;;31.97;;
63110;SDS011;49201;53.426;10.300;2023-04-16T08:02:39;29.63;;;20.27;;
63110;SDS011;49201;53.426;10.300;2023-04-16T08:05:05;28.33;;;19.73;;
63110;SDS011;49201;53.426;10.300;2023-04-16T08:07:31;30.13;;;20.37;;
63110;SDS011;49201;53.426;10.300;2023-04-16T08:09:57;27.53;;;19.53;;
63110;SDS011;49201;53.426;10.300;2023-04-16T08:12:22;28.67;;;19.90;;
63110;SDS011;49201;53.426;10.300;2023-04-16T08:14:48;25.47;;;19.10;;
63110;SDS011;49201;53.426;10.300;2023-04-16T08:17:13;25.97;;;19.43;;
63110;SDS011;49201;53.426;10.300;2023-04-16T08:19:39;33.23;;;22.00;;
63110;SDS011;49201;53.426;10.300;2023-04-16T08:22:05;29.27;;;20.93;;
63110;SDS011;49201;53.426;10.300;2023-04-16T08:24:30;26.13;;;20.07;;
63110;SDS011;49201;53.426;10.300;2023-04-16T08:26:56;28.27;;;20.23;;
63110;SDS011;49201;53.426;10.300;2023-04-16T08:29:21;23.00;;;18.13;;
63110;SDS011;49201;53.426;10.300;2023-04-16T08:31:50;23.63;;;17.40;;
63110;SDS011;49201;53.426;10.300;2023-04-16T08:34:16;27.93;;;20.60;;
63110;SDS011;49201;53.426;10.300;2023-04-16T08:36:41;25.10;;;18.30;;
63110;SDS011;49201;53.426;10.300;2023-04-16T08:39:07;26.07;;;19.30;;
63110;SDS011;49201;53.426;10.300;2023-04-16T08:41:33;28.33;;;19.83;;
63110;SDS011;49201;53.426;10.300;2023-04-16T08:44:03;23.73;;;17.93;;
63110;SDS011;49201;53.426;10.300;2023-04-16T08:46:32;24.33;;;19.40;;
63110;SDS011;49201;53.426;10.300;2023-04-16T08:49:01;23.93;;;17.90;;
63110;SDS011;49201;53.426;10.300;2023-04-16T08:51:32;25.23;;;17.33;;
63110;SDS011;49201;53.426;10.300;2023-04-16T08:54:03;23.73;;;16.77;;
63110;SDS011;49201;53.426;10.300;2023-04-16T08:56:30;22.00;;;17.77;;
63110;SDS011;49201;53.426;10.300;2023-04-16T08:58:56;23.43;;;17.30;;
63110;SDS011;49201;53.426;10.300;2023-04-16T09:01:23;21.93;;;17.40;;
63110;SDS011;49201;53.426;10.300;2023-04-16T09:03:50;24.53;;;17.47;;
63110;SDS011;49201;53.426;10.300;2023-04-16T09:06:17;21.33;;;16.63;;
63110;SDS011;49201;53.426;10.300;2023-04-16T09:08:43;23.53;;;17.23;;
63110;SDS011;49201;53.426;10.300;2023-04-16T09:11:10;21.00;;;16.83;;
63110;SDS011;49201;53.426;10.300;2023-04-16T09:13:37;22.17;;;16.83;;
63110;SDS011;49201;53.426;10.300;2023-04-16T09:16:03;21.60;;;16.83;;
63110;SDS011;49201;53.426;10.300;2023-04-16T09:18:31;23.03;;;16.83;;
63110;SDS011;49201;53.426;10.300;2023-04-16T09:20:56;20.07;;;15.63;;
63110;SDS011;49201;53.426;10.300;2023-04-16T09:23:22;20.97;;;16.10;;
63110;SDS011;49201;53.426;10.300;2023-04-16T09:25:49;22.03;;;16.37;;
63110;SDS011;49201;53.426;10.300;2023-04-16T09:28:47;24.43;;;17.20;;
63110;SDS011;49201;53.426;10.300;2023-04-16T09:31:16;16.80;;;14.67;;
63110;SDS011;49201;53.426;10.300;2023-04-16T09:33:43;19.70;;;15.77;;
63110;SDS011;49201;53.426;10.300;2023-04-16T09:36:26;18.83;;;15.20;;
63110;SDS011;49201;53.426;10.300;2023-04-16T09:38:52;18.57;;;15.07;;
63110;SDS011;49201;53.426;10.300;2023-04-16T09:41:18;19.07;;;15.67;;
63110;SDS011;49201;53.426;10.300;2023-04-16T09:43:52;17.97;;;15.80;;
63110;SDS011;49201;53.426;10.300;2023-04-16T09:46:22;20.87;;;15.20;;
63110;SDS011;49201;53.426;10.300;2023-04-16T09:49:14;18.10;;;14.40;;
63110;SDS011;49201;53.426;10.300;2023-04-16T09:51:41;17.60;;;13.53;;
63110;SDS011;49201;53.426;10.300;2023-04-16T09:54:08;17.27;;;13.53;;
63110;SDS011;49201;53.426;10.300;2023-04-16T09:56:43;15.20;;;13.60;;
63110;SDS011;49201;53.426;10.300;2023-04-16T09:59:19;15.73;;;13.43;;
63110;SDS011;49201;53.426;10.300;2023-04-16T10:01:46;15.97;;;12.47;;
63110;SDS011;49201;53.426;10.300;2023-04-16T10:04:13;16.33;;;12.47;;
63110;SDS011;49201;53.426;10.300;2023-04-16T10:06:39;14.37;;;12.83;;
63110;SDS011;49201;53.426;10.300;2023-04-16T10:09:07;16.27;;;13.03;;
63110;SDS011;49201;53.426;10.300;2023-04-16T10:11:34;15.03;;;12.97;;
63110;SDS011;49201;53.426;10.300;2023-04-16T10:14:01;17.37;;;13.60;;
63110;SDS011;49201;53.426;10.300;2023-04-16T10:16:26;18.87;;;12.90;;
63110;SDS011;49201;53.426;10.300;2023-04-16T10:18:54;16.77;;;13.60;;
63110;SDS011;49201;53.426;10.300;2023-04-16T10:21:20;17.93;;;12.97;;
63110;SDS011;49201;53.426;10.300;2023-04-16T10:23:46;16.60;;;13.50;;
63110;SDS011;49201;53.426;10.300;2023-04-16T10:26:13;17.20;;;13.50;;
63110;SDS011;49201;53.426;10.300;2023-04-16T10:28:42;17.07;;;13.60;;
63110;SDS011;49201;53.426;10.300;2023-04-16T10:31:09;19.80;;;13.63;;
63110;SDS011;49201;53.426;10.300;2023-04-16T10:33:38;16.93;;;13.87;;
63110;SDS011;49201;53.426;10.300;2023-04-16T10:38:44;16.83;;;13.73;;
63110;SDS011;49201;53.426;10.300;2023-04-16T10:41:11;17.23;;;13.20;;
63110;SDS011;49201;53.426;10.300;2023-04-16T10:43:41;17.00;;;13.67;;
63110;SDS011;49201;53.426;10.300;2023-04-16T10:48:53;19.23;;;13.90;;
63110;SDS011;49201;53.426;10.300;2023-04-16T10:51:24;18.00;;;13.23;;
63110;SDS011;49201;53.426;10.300;2023-04-16T10:53:56;17.10;;;13.63;;
63110;SDS011;49201;53.426;10.300;2023-04-16T10:56:30;14.70;;;12.30;;
63110;SDS011;49201;53.426;10.300;2023-04-16T10:58:57;15.93;;;13.73;;
63110;SDS011;49201;53.426;10.300;2023-04-16T11:01:41;17.60;;;13.77;;
63110;SDS011;49201;53.426;10.300;2023-04-16T11:12:23;15.90;;;12.03;;
63110;SDS011;49201;53.426;10.300;2023-04-16T11:14:58;15.87;;;12.00;;
63110;SDS011;49201;53.426;10.300;2023-04-16T11:17:30;14.00;;;11.77;;
63110;SDS011;49201;53.426;10.300;2023-04-16T11:20:00;15.60;;;12.70;;
63110;SDS011;49201;53.426;10.300;2023-04-16T11:22:27;13.33;;;11.80;;
63110;SDS011;49201;53.426;10.300;2023-04-16T11:24:53;14.47;;;12.23;;
63110;SDS011;49201;53.426;10.300;2023-04-16T11:27:20;14.40;;;11.90;;
63110;SDS011;49201;53.426;10.300;2023-04-16T11:29:55;15.97;;;12.83;;
63110;SDS011;49201;53.426;10.300;2023-04-16T11:32:22;14.67;;;12.03;;
63110;SDS011;49201;53.426;10.300;2023-04-16T11:34:47;18.47;;;13.23;;
63110;SDS011;49201;53.426;10.300;2023-04-16T11:37:13;17.77;;;12.20;;
63110;SDS011;49201;53.426;10.300;2023-04-16T11:39:51;13.93;;;12.43;;
63110;SDS011;49201;53.426;10.300;2023-04-16T11:42:20;17.17;;;12.83;;
63110;SDS011;49201;53.426;10.300;2023-04-16T11:44:54;16.40;;;13.47;;
63110;SDS011;49201;53.426;10.300;2023-04-16T11:47:23;14.70;;;12.93;;
63110;SDS011;49201;53.426;10.300;2023-04-16T11:49:49;14.87;;;12.63;;
63110;SDS011;49201;53.426;10.300;2023-04-16T11:52:25;16.97;;;13.67;;
63110;SDS011;49201;53.426;10.300;2023-04-16T11:54:51;17.70;;;14.13;;
63110;SDS011;49201;53.426;10.300;2023-04-16T11:57:29;18.53;;;14.27;;
63110;SDS011;49201;53.426;10.300;2023-04-16T11:59:58;19.10;;;14.67;;
63110;SDS011;49201;53.426;10.300;2023-04-16T12:05:01;18.30;;;13.87;;
63110;SDS011;49201;53.426;10.300;2023-04-16T12:07:27;17.03;;;13.80;;
63110;SDS011;49201;53.426;10.300;2023-04-16T12:10:03;17.70;;;12.93;;
63110;SDS011;49201;53.426;10.300;2023-04-16T12:12:32;16.00;;;13.23;;
63110;SDS011;49201;53.426;10.300;2023-04-16T12:14:59;19.00;;;14.00;;
63110;SDS011;49201;53.426;10.300;2023-04-16T12:17:28;17.23;;;14.03;;
63110;SDS011;49201;53.426;10.300;2023-04-16T12:19:55;18.30;;;13.90;;
63110;SDS011;49201;53.426;10.300;2023-04-16T12:22:32;20.13;;;13.97;;
63110;SDS011;49201;53.426;10.300;2023-04-16T12:25:02;19.33;;;13.53;;
63110;SDS011;49201;53.426;10.300;2023-04-16T12:27:41;18.40;;;13.77;;
63110;SDS011;49201;53.426;10.300;2023-04-16T12:30:07;17.43;;;12.73;;
63110;SDS011;49201;53.426;10.300;2023-04-16T12:32:33;14.73;;;11.63;;
63110;SDS011;49201;53.426;10.300;2023-04-16T12:34:59;14.83;;;12.70;;
63110;SDS011;49201;53.426;10.300;2023-04-16T12:37:24;14.50;;;13.00;;
63110;SDS011;49201;53.426;10.300;2023-04-16T12:39:50;17.63;;;12.40;;
63110;SDS011;49201;53.426;10.300;2023-04-16T12:42:16;15.13;;;12.00;;
63110;SDS011;49201;53.426;10.300;2023-04-16T12:44:41;15.33;;;12.33;;
63110;SDS011;49201;53.426;10.300;2023-04-16T12:47:06;15.20;;;11.57;;
63110;SDS011;49201;53.426;10.300;2023-04-16T12:49:32;13.63;;;11.20;;
63110;SDS011;49201;53.426;10.300;2023-04-16T12:51:57;13.40;;;10.53;;
63110;SDS011;49201;53.426;10.300;2023-04-16T12:54:23;14.23;;;11.40;;
63110;SDS011;49201;53.426;10.300;2023-04-16T12:56:48;13.20;;;10.53;;
63110;SDS011;49201;53.426;10.300;2023-04-16T12:59:14;15.97;;;11.60;;
63110;SDS011;49201;53.426;10.300;2023-04-16T13:01:41;14.33;;;10.47;;
63110;SDS011;49201;53.426;10.300;2023-04-16T13:04:06;13.77;;;10.87;;
63110;SDS011;49201;53.426;10.300;2023-04-16T13:06:33;13.07;;;11.67;;
63110;SDS011;49201;53.426;10.300;2023-04-16T13:09:00;15.47;;;10.87;;
63110;SDS011;49201;53.426;10.300;2023-04-16T13:11:26;17.47;;;12.50;;
63110;SDS011;49201;53.426;10.300;2023-04-16T13:13:51;14.63;;;12.10;;
63110;SDS011;49201;53.426;10.300;2023-04-16T13:16:17;19.53;;;13.33;;
63110;SDS011;49201;53.426;10.300;2023-04-16T13:18:42;16.20;;;12.67;;
63110;SDS011;49201;53.426;10.300;2023-04-16T13:21:08;17.10;;;11.83;;
63110;SDS011;49201;53.426;10.300;2023-04-16T13:23:33;15.67;;;11.90;;
63110;SDS011;49201;53.426;10.300;2023-04-16T13:25:59;16.83;;;12.80;;
63110;SDS011;49201;53.426;10.300;2023-04-16T13:28:25;17.33;;;12.43;;
63110;SDS011;49201;53.426;10.300;2023-04-16T13:30:51;15.37;;;11.90;;
63110;SDS011;49201;53.426;10.300;2023-04-16T13:33:17;17.17;;;11.10;;
63110;SDS011;49201;53.426;10.300;2023-04-16T13:35:42;16.03;;;11.07;;
63110;SDS011;49201;53.426;10.300;2023-04-16T13:38:08;18.63;;;12.23;;
63110;SDS011;49201;53.426;10.300;2023-04-16T13:40:33;15.17;;;12.60;;
63110;SDS011;49201;53.426;10.300;2023-04-16T13:42:58;14.70;;;10.47;;
63110;SDS011;49201;53.426;10.300;2023-04-16T13:45:24;14.87;;;12.07;;
63110;SDS011;49201;53.426;10.300;2023-04-16T13:47:51;13.77;;;11.80;;
63110;SDS011;49201;53.426;10.300;2023-04-16T13:50:18;14.10;;;11.40;;
63110;SDS011;49201;53.426;10.300;2023-04-16T13:52:43;14.57;;;10.87;;
63110;SDS011;49201;53.426;10.300;2023-04-16T13:55:09;18.50;;;12.07;;
63110;SDS011;49201;53.426;10.300;2023-04-16T13:57:34;17.67;;;12.00;;
63110;SDS011;49201;53.426;10.300;2023-04-16T14:00:01;17.17;;;11.57;;
63110;SDS011;49201;53.426;10.300;2023-04-16T14:02:29;18.00;;;12.50;;
63110;SDS011;49201;53.426;10.300;2023-04-16T14:04:55;15.20;;;12.23;;
63110;SDS011;49201;53.426;10.300;2023-04-16T14:07:20;13.30;;;10.67;;
63110;SDS011;49201;53.426;10.300;2023-04-16T14:09:49;13.93;;;11.37;;
63110;SDS011;49201;53.426;10.300;2023-04-16T14:12:15;17.17;;;11.60;;
63110;SDS011;49201;53.426;10.300;2023-04-16T14:14:40;15.27;;;11.43;;
63110;SDS011;49201;53.426;10.300;2023-04-16T14:17:06;16.17;;;11.80;;
63110;SDS011;49201;53.426;10.300;2023-04-16T14:19:31;13.77;;;11.23;;
63110;SDS011;49201;53.426;10.300;2023-04-16T14:21:57;21.83;;;19.17;;